createdAt,value
2017-10-24T00:01:01.766Z,63.70
2017-10-24T00:03:29.207Z,64.00
2017-10-24T00:05:56.650Z,64.00
2017-10-24T00:08:24.092Z,63.70
2017-10-24T00:10:51.537Z,64.00
2017-10-24T00:13:18.971Z,64.40
2017-10-24T00:15:46.411Z,64.80
2017-10-24T00:18:14.285Z,64.70
2017-10-24T00:20:41.727Z,64.40
2017-10-24T00:23:10.193Z,64.20
2017-10-24T00:25:37.649Z,64.50
2017-10-24T00:28:05.088Z,64.70
2017-10-24T00:30:32.531Z,64.70
2017-10-24T00:33:00.065Z,64.70
2017-10-24T00:35:27.505Z,64.90
2017-10-24T00:37:54.953Z,64.70
2017-10-24T00:40:22.402Z,64.80
2017-10-24T00:42:49.863Z,64.70
2017-10-24T00:45:17.303Z,65.00
2017-10-24T00:47:44.749Z,65.10
2017-10-24T00:50:12.192Z,65.10
2017-10-24T00:52:39.628Z,65.00
2017-10-24T00:55:07.068Z,65.40
2017-10-24T00:57:34.532Z,65.10
2017-10-24T01:00:02.789Z,65.30
2017-10-24T01:02:30.228Z,65.30
2017-10-24T01:04:57.678Z,65.00
2017-10-24T01:07:25.886Z,65.60
2017-10-24T01:09:53.340Z,65.50
2017-10-24T01:12:20.787Z,65.90
2017-10-24T01:14:48.232Z,66.00
2017-10-24T01:17:15.678Z,66.20
2017-10-24T01:19:43.133Z,66.70
2017-10-24T01:22:10.577Z,66.90
2017-10-24T01:24:38.018Z,66.70
2017-10-24T01:27:05.457Z,66.70
2017-10-24T01:29:32.984Z,66.90
2017-10-24T01:32:00.418Z,67.90
2017-10-24T01:34:27.848Z,67.20
2017-10-24T01:36:55.298Z,67.10
2017-10-24T01:39:22.737Z,66.90
2017-10-24T01:41:50.181Z,66.90
2017-10-24T01:44:17.645Z,66.70
2017-10-24T01:46:45.094Z,67.00
2017-10-24T01:49:12.541Z,67.30
2017-10-24T01:51:39.989Z,67.20
2017-10-24T01:54:07.442Z,67.10
2017-10-24T01:56:34.909Z,67.40
2017-10-24T01:59:02.356Z,67.40
2017-10-24T02:01:29.801Z,67.40
2017-10-24T02:03:57.241Z,67.50
2017-10-24T02:06:24.684Z,67.50
2017-10-24T02:08:52.128Z,67.30
2017-10-24T02:11:19.591Z,67.60
2017-10-24T02:13:47.027Z,67.60
2017-10-24T02:16:14.489Z,67.60
2017-10-24T02:18:41.928Z,67.70
2017-10-24T02:21:09.391Z,67.80
2017-10-24T02:23:36.842Z,67.90
2017-10-24T02:26:04.284Z,68.00
2017-10-24T02:28:31.741Z,68.00
2017-10-24T02:30:59.194Z,67.90
2017-10-24T02:33:27.407Z,68.50
2017-10-24T02:35:54.853Z,68.50
2017-10-24T02:38:22.307Z,68.20
2017-10-24T02:40:49.763Z,68.00
2017-10-24T02:43:17.218Z,68.00
2017-10-24T02:45:44.653Z,67.90
2017-10-24T02:48:12.124Z,67.90
2017-10-24T02:50:39.612Z,68.20
2017-10-24T02:53:07.055Z,67.90
2017-10-24T02:55:34.506Z,68.00
2017-10-24T02:58:01.975Z,68.70
2017-10-24T03:00:29.422Z,68.90
2017-10-24T03:02:57.638Z,69.30
2017-10-24T03:05:25.080Z,69.20
2017-10-24T03:07:52.527Z,69.20
2017-10-24T03:10:19.970Z,69.60
2017-10-24T03:12:48.199Z,70.60
2017-10-24T03:15:15.640Z,70.60
2017-10-24T03:17:43.091Z,70.80
2017-10-24T03:20:10.528Z,71.00
2017-10-24T03:22:37.975Z,71.40
2017-10-24T03:25:05.429Z,71.60
2017-10-24T03:27:32.878Z,72.70
2017-10-24T03:30:00.332Z,72.50
2017-10-24T03:32:27.772Z,72.80
2017-10-24T03:34:55.235Z,72.90
2017-10-24T03:37:22.688Z,72.70
2017-10-24T03:39:50.133Z,72.60
2017-10-24T03:42:18.344Z,73.60
2017-10-24T03:44:45.802Z,73.40
2017-10-24T03:47:13.245Z,73.10
2017-10-24T03:49:40.690Z,73.30
2017-10-24T03:52:08.896Z,73.00
2017-10-24T03:54:37.130Z,73.20
2017-10-24T03:57:04.594Z,73.20
2017-10-24T03:59:32.826Z,73.90
2017-10-24T04:02:00.285Z,73.40
2017-10-24T04:04:27.733Z,73.60
2017-10-24T04:06:55.167Z,73.70
2017-10-24T04:09:22.612Z,73.60
2017-10-24T04:11:50.064Z,72.90
2017-10-24T04:14:17.521Z,72.60
2017-10-24T04:16:45.732Z,72.80
2017-10-24T04:19:13.190Z,72.80
2017-10-24T04:21:40.649Z,73.10
2017-10-24T04:24:08.095Z,73.30
2017-10-24T04:26:35.553Z,73.00
2017-10-24T04:29:03.761Z,73.10
2017-10-24T04:31:31.217Z,73.00
2017-10-24T04:33:58.656Z,72.90
2017-10-24T04:36:26.116Z,72.90
2017-10-24T04:38:53.638Z,73.00
2017-10-24T04:41:21.085Z,73.30
2017-10-24T04:43:49.307Z,73.00
2017-10-24T04:46:16.765Z,73.40
2017-10-24T04:48:44.229Z,73.00
2017-10-24T04:51:11.692Z,73.10
2017-10-24T04:53:39.183Z,72.70
2017-10-24T04:56:06.633Z,72.70
2017-10-24T04:58:34.072Z,72.50
2017-10-24T05:01:01.532Z,72.50
2017-10-24T05:03:28.989Z,72.60
2017-10-24T05:05:56.453Z,72.80
2017-10-24T05:08:23.959Z,72.70
2017-10-24T05:10:51.420Z,72.30
2017-10-24T05:13:18.962Z,72.60
2017-10-24T05:15:46.400Z,72.50
2017-10-24T05:18:13.851Z,72.40
2017-10-24T05:20:41.312Z,72.30
2017-10-24T05:23:08.835Z,72.60
2017-10-24T05:25:36.274Z,72.40
2017-10-24T05:28:03.709Z,72.70
2017-10-24T05:30:31.168Z,72.20
2017-10-24T05:32:58.621Z,72.00
2017-10-24T05:35:26.056Z,72.10
2017-10-24T05:37:53.597Z,71.80
2017-10-24T05:40:21.056Z,71.90
2017-10-24T05:42:48.570Z,71.80
2017-10-24T05:45:16.016Z,71.90
2017-10-24T05:47:43.457Z,71.80
2017-10-24T05:50:10.902Z,71.70
2017-10-24T05:52:39.176Z,71.80
2017-10-24T05:55:06.613Z,71.50
2017-10-24T05:57:34.497Z,71.30
2017-10-24T06:00:01.990Z,71.70
2017-10-24T06:02:29.423Z,71.10
2017-10-24T06:04:56.864Z,71.30
2017-10-24T06:07:24.311Z,71.40
2017-10-24T06:09:51.765Z,71.30
2017-10-24T06:12:19.222Z,71.00
2017-10-24T06:14:46.670Z,70.90
2017-10-24T06:17:14.132Z,70.50
2017-10-24T06:19:41.571Z,70.20
2017-10-24T06:22:09.070Z,70.10
2017-10-24T06:24:36.504Z,70.10
2017-10-24T06:27:03.953Z,70.10
2017-10-24T06:29:31.399Z,69.30
2017-10-24T06:31:58.839Z,69.40
2017-10-24T06:34:26.322Z,69.30
2017-10-24T06:36:53.765Z,68.90
2017-10-24T06:39:21.204Z,68.50
2017-10-24T06:41:48.649Z,68.30
2017-10-24T06:44:16.095Z,68.50
2017-10-24T06:46:43.544Z,67.80
2017-10-24T06:49:10.988Z,68.00
2017-10-24T06:51:38.440Z,68.20
2017-10-24T06:54:06.653Z,67.80
2017-10-24T06:56:34.102Z,67.80
2017-10-24T06:59:01.548Z,67.60
2017-10-24T07:01:28.987Z,67.60
2017-10-24T07:03:56.439Z,67.90
2017-10-24T07:06:23.888Z,67.30
2017-10-24T07:08:52.858Z,67.50
2017-10-24T07:11:20.297Z,67.40
2017-10-24T07:13:47.745Z,67.20
2017-10-24T07:16:15.181Z,67.30
2017-10-24T07:18:43.016Z,67.50
2017-10-24T07:21:10.448Z,67.50
2017-10-24T07:23:37.901Z,67.20
2017-10-24T07:26:05.362Z,67.30
2017-10-24T07:28:32.804Z,66.70
2017-10-24T07:31:00.243Z,66.90
2017-10-24T07:33:27.685Z,66.00
2017-10-24T07:35:55.131Z,66.20
2017-10-24T07:38:22.567Z,65.60
2017-10-24T07:40:50.018Z,65.00
2017-10-24T07:43:17.458Z,65.70
2017-10-24T07:45:44.916Z,65.50
2017-10-24T07:48:12.340Z,64.80
2017-10-24T07:50:39.785Z,63.40
2017-10-24T07:53:07.220Z,62.80
2017-10-24T07:55:34.712Z,62.80
2017-10-24T07:58:02.915Z,62.60
2017-10-24T08:00:30.355Z,62.10
2017-10-24T08:02:57.790Z,62.30
2017-10-24T08:05:25.237Z,62.20
2017-10-24T08:07:52.696Z,62.00
2017-10-24T08:10:20.133Z,62.50
2017-10-24T08:12:47.578Z,61.30
2017-10-24T08:15:15.029Z,61.30
2017-10-24T08:17:42.469Z,61.30
2017-10-24T08:20:09.938Z,60.50
2017-10-24T08:22:37.381Z,60.70
2017-10-24T08:25:04.815Z,60.20
2017-10-24T08:27:32.261Z,59.30
2017-10-24T08:29:59.688Z,59.00
2017-10-24T08:32:27.151Z,59.40
2017-10-24T08:34:54.600Z,59.50
2017-10-24T08:37:22.089Z,58.80
2017-10-24T08:39:49.530Z,58.90
2017-10-24T08:42:17.901Z,59.00
2017-10-24T08:44:45.323Z,58.10
2017-10-24T08:47:12.769Z,58.00
2017-10-24T08:49:40.399Z,58.90
2017-10-24T08:52:08.612Z,60.00
2017-10-24T08:54:36.049Z,59.30
2017-10-24T08:57:03.492Z,59.30
2017-10-24T08:59:30.926Z,59.20
2017-10-24T09:01:58.360Z,59.10
2017-10-24T09:04:25.826Z,59.10
2017-10-24T09:06:55.776Z,58.90
2017-10-24T09:12:20.576Z,57.30
2017-10-24T09:14:48.027Z,58.00
2017-10-24T09:20:08.141Z,57.20
2017-10-24T09:22:35.615Z,55.90
2017-10-24T09:25:03.821Z,56.20
2017-10-24T09:27:31.267Z,55.50
2017-10-24T09:29:58.724Z,55.10
2017-10-24T09:32:26.186Z,55.00
2017-10-24T09:34:53.655Z,54.60
2017-10-24T09:37:21.861Z,54.50
2017-10-24T09:39:49.301Z,54.50
2017-10-24T09:42:16.737Z,54.10
2017-10-24T09:44:44.181Z,54.40
2017-10-24T09:47:11.624Z,54.00
2017-10-24T09:49:39.072Z,55.00
2017-10-24T09:52:06.508Z,54.10
2017-10-24T09:54:41.582Z,53.80
2017-10-24T09:57:08.996Z,54.20
2017-10-24T09:59:36.204Z,54.70
2017-10-24T10:02:03.648Z,54.30
2017-10-24T10:04:31.093Z,54.30
2017-10-24T10:07:02.447Z,54.00
2017-10-24T10:09:29.912Z,53.00
2017-10-24T10:11:57.371Z,53.80
2017-10-24T10:14:25.956Z,54.20
2017-10-24T10:16:53.390Z,54.50
2017-10-24T10:19:20.840Z,53.80
2017-10-24T10:21:55.572Z,53.80
2017-10-24T10:24:30.836Z,54.10
2017-10-24T10:26:58.288Z,53.50
2017-10-24T10:29:25.720Z,53.50
2017-10-24T10:31:53.179Z,53.80
2017-10-24T10:34:20.612Z,53.40
2017-10-24T10:36:48.047Z,53.10
2017-10-24T10:39:15.620Z,53.00
2017-10-24T10:41:43.840Z,53.20
2017-10-24T10:44:11.277Z,53.10
2017-10-24T10:46:38.725Z,52.90
2017-10-24T10:49:06.155Z,52.90
2017-10-24T10:51:33.608Z,52.60
2017-10-24T10:54:01.046Z,52.60
2017-10-24T10:56:28.484Z,52.40
2017-10-24T10:58:55.962Z,53.10
2017-10-24T11:01:23.413Z,53.80
2017-10-24T11:03:51.620Z,53.40
2017-10-24T11:06:19.064Z,53.40
2017-10-24T11:08:46.497Z,53.50
2017-10-24T11:11:13.962Z,53.30
2017-10-24T11:13:41.457Z,53.80
2017-10-24T11:16:09.721Z,54.00
2017-10-24T11:18:37.929Z,53.90
2017-10-24T11:21:05.389Z,53.90
2017-10-24T11:23:33.015Z,54.50
2017-10-24T11:26:00.469Z,54.10
2017-10-24T11:28:27.909Z,53.70
2017-10-24T11:30:55.348Z,53.60
2017-10-24T11:33:22.796Z,54.00
2017-10-24T11:35:50.253Z,54.20
2017-10-24T11:38:17.728Z,53.40
2017-10-24T11:40:45.931Z,53.30
2017-10-24T11:43:13.377Z,53.30
2017-10-24T11:45:40.796Z,52.10
2017-10-24T11:48:08.269Z,52.40
2017-10-24T11:50:35.696Z,52.30
2017-10-24T11:53:03.145Z,52.00
2017-10-24T11:55:30.585Z,51.30
2017-10-24T11:57:58.046Z,51.40
2017-10-24T12:00:26.457Z,51.40
2017-10-24T12:02:53.904Z,51.00
2017-10-24T12:05:21.349Z,51.00
2017-10-24T12:07:48.812Z,51.00
2017-10-24T12:10:16.246Z,51.40
2017-10-24T12:12:43.697Z,51.00
2017-10-24T12:15:11.138Z,50.30
2017-10-24T12:17:38.572Z,49.80
2017-10-24T12:20:06.004Z,50.20
2017-10-24T12:22:33.460Z,49.70
2017-10-24T12:25:00.926Z,49.30
2017-10-24T12:27:28.387Z,49.60
2017-10-24T12:29:55.824Z,49.10
2017-10-24T12:32:23.273Z,50.00
2017-10-24T12:34:50.726Z,49.90
2017-10-24T12:37:18.164Z,50.10
2017-10-24T12:39:45.598Z,50.20
2017-10-24T12:42:17.511Z,50.00
2017-10-24T12:44:50.907Z,50.20
2017-10-24T12:47:18.358Z,50.60
2017-10-24T12:50:06.545Z,51.10
2017-10-24T12:52:33.982Z,50.80
2017-10-24T12:55:02.180Z,51.10
2017-10-24T12:57:45.299Z,51.10
2017-10-24T13:00:14.189Z,51.40
2017-10-24T13:02:42.658Z,51.40
2017-10-24T13:05:11.013Z,51.10
2017-10-24T13:07:38.438Z,51.10
2017-10-24T13:10:05.905Z,51.90
2017-10-24T13:12:33.320Z,51.40
2017-10-24T13:15:00.770Z,51.40
2017-10-24T13:17:28.204Z,51.10
2017-10-24T13:19:55.653Z,51.30
2017-10-24T13:22:23.089Z,51.10
2017-10-24T13:24:50.549Z,51.20
2017-10-24T13:27:17.976Z,51.60
2017-10-24T13:29:45.426Z,51.30
2017-10-24T13:32:12.863Z,51.30
2017-10-24T13:34:40.308Z,51.60
2017-10-24T13:37:07.756Z,51.80
2017-10-24T13:39:35.205Z,51.90
2017-10-24T13:42:02.665Z,52.00
2017-10-24T13:44:30.146Z,52.10
2017-10-24T13:46:57.600Z,52.30
2017-10-24T13:49:25.062Z,52.50
2017-10-24T13:51:52.519Z,52.50
2017-10-24T13:54:20.492Z,52.70
2017-10-24T13:56:47.951Z,52.80
2017-10-24T13:59:16.149Z,52.70
2017-10-24T14:01:43.593Z,52.70
2017-10-24T14:04:16.665Z,52.40
2017-10-24T14:06:49.784Z,52.70
2017-10-24T14:09:22.956Z,52.70
2017-10-24T14:11:51.194Z,53.30
2017-10-24T14:14:18.624Z,52.90
2017-10-24T14:16:46.129Z,52.70
2017-10-24T14:19:14.325Z,53.10
2017-10-24T14:21:41.771Z,53.00
2017-10-24T14:24:09.191Z,53.10
2017-10-24T14:26:36.639Z,53.40
2017-10-24T14:29:04.068Z,52.80
2017-10-24T14:31:32.276Z,52.60
2017-10-24T14:33:59.723Z,52.50
2017-10-24T14:36:27.193Z,52.70
2017-10-24T14:38:55.404Z,53.10
2017-10-24T14:41:22.849Z,52.30
2017-10-24T14:43:50.309Z,52.20
2017-10-24T14:46:17.762Z,52.10
2017-10-24T14:48:45.217Z,52.60
2017-10-24T14:51:12.658Z,53.50
2017-10-24T14:53:40.209Z,52.80
2017-10-24T14:56:07.651Z,52.60
2017-10-24T14:58:35.900Z,53.40
2017-10-24T15:01:04.892Z,52.80
2017-10-24T15:03:32.329Z,52.80
2017-10-24T15:05:59.763Z,53.70
2017-10-24T15:08:27.205Z,53.60
2017-10-24T15:10:54.645Z,53.50
2017-10-24T15:13:22.101Z,53.50
2017-10-24T15:15:49.550Z,53.40
2017-10-24T15:18:16.984Z,53.50
2017-10-24T15:20:44.426Z,53.80
2017-10-24T15:23:11.904Z,53.60
2017-10-24T15:25:40.101Z,53.60
2017-10-24T15:28:07.573Z,53.60
2017-10-24T15:30:36.523Z,53.90
2017-10-24T15:33:03.992Z,53.90
2017-10-24T15:35:31.425Z,54.20
2017-10-24T15:37:58.874Z,54.10
2017-10-24T15:40:26.319Z,54.30
2017-10-24T15:42:53.872Z,54.40
2017-10-24T15:45:21.414Z,54.60
2017-10-24T15:47:48.952Z,54.90
2017-10-24T15:50:16.402Z,55.20
2017-10-24T15:52:43.936Z,55.40
2017-10-24T15:55:11.377Z,55.60
2017-10-24T15:57:38.823Z,55.60
2017-10-24T16:00:06.281Z,55.90
2017-10-24T16:02:35.476Z,56.00
2017-10-24T16:05:03.712Z,56.30
2017-10-24T16:07:31.152Z,56.30
2017-10-24T16:09:58.593Z,56.90
2017-10-24T16:12:26.031Z,57.60
2017-10-24T16:14:53.519Z,57.30
2017-10-24T16:17:21.010Z,57.50
2017-10-24T16:19:48.452Z,57.60
2017-10-24T16:22:15.948Z,57.70
2017-10-24T16:24:44.253Z,57.90
2017-10-24T16:27:11.682Z,57.90
2017-10-24T16:29:39.134Z,58.30
2017-10-24T16:32:06.599Z,58.30
2017-10-24T16:34:34.088Z,58.60
2017-10-24T16:37:01.526Z,58.80
2017-10-24T16:39:29.726Z,58.80
2017-10-24T16:41:57.169Z,58.80
2017-10-24T16:44:24.600Z,58.90
2017-10-24T16:46:52.036Z,59.10
2017-10-24T16:49:19.548Z,59.20
2017-10-24T16:51:46.968Z,59.50
2017-10-24T16:54:14.402Z,59.90
2017-10-24T16:56:41.861Z,59.90
2017-10-24T16:59:09.288Z,60.00
2017-10-24T17:01:36.732Z,60.10
2017-10-24T17:04:04.253Z,60.20
2017-10-24T17:06:31.709Z,60.90
2017-10-24T17:08:59.140Z,61.00
2017-10-24T17:11:26.601Z,61.20
2017-10-24T17:13:54.072Z,61.50
2017-10-24T17:16:22.284Z,62.30
2017-10-24T17:18:49.730Z,62.30
2017-10-24T17:21:17.200Z,62.50
2017-10-24T17:23:44.629Z,62.80
2017-10-24T17:26:12.097Z,63.00
2017-10-24T17:28:39.532Z,63.50
2017-10-24T17:31:06.985Z,63.60
2017-10-24T17:33:35.230Z,64.00
2017-10-24T17:36:02.689Z,64.00
2017-10-24T17:38:30.900Z,65.10
2017-10-24T17:40:58.332Z,64.40
2017-10-24T17:43:25.778Z,64.30
2017-10-24T17:45:53.203Z,64.50
2017-10-24T17:48:20.658Z,64.80
2017-10-24T17:50:48.143Z,65.20
2017-10-24T17:53:15.603Z,65.30
2017-10-24T17:55:43.042Z,65.40
2017-10-24T17:58:10.492Z,66.70
2017-10-24T18:00:38.705Z,66.00
2017-10-24T18:03:06.148Z,66.00
2017-10-24T18:05:33.583Z,66.20
2017-10-24T18:08:01.059Z,66.30
2017-10-24T18:10:28.506Z,66.70
2017-10-24T18:12:55.965Z,66.90
2017-10-24T18:15:24.238Z,67.20
2017-10-24T18:17:52.436Z,66.90
2017-10-24T18:20:19.886Z,67.00
2017-10-24T18:22:47.328Z,66.90
2017-10-24T18:25:14.768Z,66.90
2017-10-24T18:27:42.214Z,66.90
2017-10-24T18:30:09.657Z,66.70
2017-10-24T18:32:37.089Z,67.00
2017-10-24T18:35:04.539Z,67.20
2017-10-24T18:37:31.979Z,67.30
2017-10-24T18:39:59.436Z,67.30
2017-10-24T18:42:26.905Z,67.50
2017-10-24T18:44:54.452Z,68.30
2017-10-24T18:47:21.877Z,68.50
2017-10-24T18:49:49.325Z,69.30
2017-10-24T18:52:16.753Z,69.20
2017-10-24T18:54:44.204Z,69.70
2017-10-24T18:57:11.648Z,69.70
2017-10-24T18:59:39.172Z,69.80
2017-10-24T19:02:06.584Z,69.60
2017-10-24T19:04:34.035Z,69.50
2017-10-24T19:07:01.468Z,70.20
2017-10-24T19:09:28.969Z,70.00
2017-10-24T19:11:57.178Z,70.30
2017-10-24T19:14:24.684Z,70.40
2017-10-24T19:16:52.884Z,70.70
2017-10-24T19:19:20.358Z,70.60
2017-10-24T19:21:47.808Z,70.30
2017-10-24T19:24:15.299Z,70.30
2017-10-24T19:26:43.510Z,70.60
2017-10-24T19:29:10.940Z,70.60
2017-10-24T19:31:38.516Z,70.40
2017-10-24T19:34:06.724Z,70.40
2017-10-24T19:36:34.489Z,70.40
2017-10-24T19:39:01.934Z,71.10
2017-10-24T19:41:29.377Z,71.50
2017-10-24T19:43:56.837Z,71.40
2017-10-24T19:46:24.300Z,71.10
2017-10-24T19:48:51.909Z,70.70
2017-10-24T19:51:19.385Z,70.60
2017-10-24T19:53:46.929Z,70.40
2017-10-24T19:56:14.550Z,70.40
2017-10-24T19:58:41.990Z,70.40
2017-10-24T20:01:09.457Z,70.20
2017-10-24T20:03:36.901Z,70.40
2017-10-24T20:06:04.361Z,70.10
2017-10-24T20:08:32.560Z,70.40
2017-10-24T20:11:00.152Z,70.40
2017-10-24T20:13:27.606Z,71.00
2017-10-24T20:15:55.825Z,70.40
2017-10-24T20:18:23.271Z,70.40
2017-10-24T20:20:50.744Z,70.40
2017-10-24T20:23:18.189Z,70.20
2017-10-24T20:25:45.725Z,70.00
2017-10-24T20:28:13.193Z,69.80
2017-10-24T20:30:41.445Z,69.50
2017-10-24T20:33:09.664Z,71.90
2017-10-24T20:35:37.112Z,71.50
2017-10-24T20:38:04.565Z,69.80
2017-10-24T20:40:32.030Z,68.10
2017-10-24T20:43:00.248Z,67.80
2017-10-24T20:45:27.718Z,67.80
2017-10-24T20:47:55.277Z,67.40
2017-10-24T20:50:23.479Z,66.90
2017-10-24T20:52:50.929Z,66.90
2017-10-24T20:55:18.367Z,66.30
2017-10-24T20:57:45.824Z,66.50
2017-10-24T21:00:13.306Z,66.20
2017-10-24T21:02:40.818Z,65.30
2017-10-24T21:05:08.292Z,65.40
2017-10-24T21:07:35.733Z,64.60
2017-10-24T21:10:03.160Z,64.50
2017-10-24T21:12:30.605Z,64.60
2017-10-24T21:14:58.048Z,64.70
2017-10-24T21:17:25.482Z,64.60
2017-10-24T21:19:52.944Z,64.60
2017-10-24T21:22:20.389Z,64.50
2017-10-24T21:24:47.947Z,65.10
2017-10-24T21:27:15.655Z,65.30
2017-10-24T21:29:43.115Z,65.80
2017-10-24T21:32:10.561Z,65.00
2017-10-24T21:34:38.017Z,64.70
2017-10-24T21:37:06.225Z,65.10
2017-10-24T21:39:33.673Z,65.10
2017-10-24T21:42:01.169Z,64.80
2017-10-24T21:44:29.388Z,64.90
2017-10-24T21:46:56.836Z,64.80
2017-10-24T21:49:24.292Z,64.70
2017-10-24T21:51:51.841Z,64.50
2017-10-24T21:54:19.387Z,64.60
2017-10-24T21:56:46.935Z,64.50
2017-10-24T21:59:14.379Z,64.20
2017-10-24T22:01:41.819Z,64.20
2017-10-24T22:04:09.264Z,64.10
2017-10-24T22:06:36.802Z,64.30
2017-10-24T22:09:04.261Z,64.60
2017-10-24T22:11:31.709Z,64.70
2017-10-24T22:13:59.952Z,65.10
2017-10-24T22:16:27.412Z,65.10
2017-10-24T22:18:55.665Z,65.00
2017-10-24T22:21:23.109Z,65.00
2017-10-24T22:23:51.377Z,64.70
2017-10-24T22:26:19.573Z,64.70
2017-10-24T22:28:47.020Z,64.40
2017-10-24T22:31:14.461Z,64.00
2017-10-24T22:33:41.900Z,63.70
2017-10-24T22:36:09.353Z,63.80
2017-10-24T22:38:36.804Z,63.60
2017-10-24T22:41:04.277Z,63.50
2017-10-24T22:43:31.712Z,63.50
2017-10-24T22:45:59.260Z,63.50
2017-10-24T22:48:26.702Z,63.40
2017-10-24T22:50:54.158Z,63.10
2017-10-24T22:53:21.700Z,63.00
2017-10-24T22:55:49.934Z,62.30
2017-10-24T22:58:17.404Z,62.30
2017-10-24T23:00:44.859Z,63.20
2017-10-24T23:03:13.067Z,62.30
2017-10-24T23:05:40.955Z,62.30
2017-10-24T23:08:08.417Z,62.30
2017-10-24T23:10:36.650Z,62.30
2017-10-24T23:13:04.108Z,62.30
2017-10-24T23:15:31.544Z,62.40
2017-10-24T23:17:58.987Z,62.50
2017-10-24T23:20:27.957Z,63.30
2017-10-24T23:22:55.405Z,63.30
2017-10-24T23:25:22.861Z,63.80
2017-10-24T23:27:50.384Z,63.80
2017-10-24T23:30:17.828Z,63.90
2017-10-24T23:32:45.390Z,64.00
2017-10-24T23:35:12.852Z,63.90
2017-10-24T23:37:41.227Z,64.30
2017-10-24T23:40:08.676Z,64.30
2017-10-24T23:42:36.180Z,64.40
2017-10-24T23:45:03.719Z,64.30
2017-10-24T23:47:31.164Z,64.50
2017-10-24T23:49:58.727Z,64.50
2017-10-24T23:52:26.934Z,64.40
2017-10-24T23:54:54.368Z,64.40
2017-10-24T23:57:21.824Z,64.40
2017-10-24T23:59:49.265Z,64.30
